PST,Max TemperatureF,Mean TemperatureF,Min TemperatureF,Max Dew PointF,MeanDew PointF,Min DewpointF,Max Humidity, Mean Humidity, Min Humidity, Max Sea Level PressureIn, Mean Sea Level PressureIn, Min Sea Level PressureIn, Max VisibilityMiles, Mean VisibilityMiles, Min VisibilityMiles, Max Wind SpeedMPH, Mean Wind SpeedMPH, Max Gust SpeedMPH,PrecipitationIn, CloudCover, Events, WindDirDegrees
2013-2-1,73,56,39,45,39,34,83,59,26,30.18,30.14,30.09,10,10,10,9,2,,0.00,1,,165
2013-2-2,80,62,43,51,44,37,83,62,22,30.19,30.14,30.08,10,10,10,6,1,,0.00,3,,184
2013-2-3,73,63,53,51,48,44,83,63,35,30.12,30.09,30.03,10,10,10,12,1,17,0.00,3,Rain,257
2013-2-4,64,52,39,52,46,35,87,79,60,30.09,30.05,29.99,10,8,2,9,3,,0.00,3,,210
2013-2-5,55,54,52,49,48,47,86,79,72,30.12,30.05,30.00,10,5,2,5,1,,0.00,8,,179
2013-2-6,62,54,39,47,44,36,86,69,52,30.12,30.06,30.01,10,10,6,8,2,,0.00,4,,209
2013-2-7,62,50,37,48,41,32,87,73,57,30.14,30.09,30.02,10,6,0,9,3,,0.01,5,,224
2013-2-8,57,50,42,44,40,37,82,67,55,30.03,29.97,29.91,10,10,6,13,6,22,0.11,6,Rain,248
2013-2-9,57,46,34,43,36,29,86,71,39,30.13,30.05,29.96,10,10,10,9,2,,0.00,1,,244
2013-2-10,57,46,36,46,39,30,86,75,51,30.12,30.08,30.04,10,9,2,10,1,17,0.11,5,Rain,197
2013-2-11,59,46,33,49,37,29,93,75,55,30.26,30.13,30.07,10,9,1,10,1,18,0.00,1,,262
2013-2-12,64,46,28,45,32,21,85,64,21,30.35,30.28,30.24,10,10,10,9,2,,0.00,0,,269
2013-2-13,64,47,30,48,37,26,86,70,27,30.27,30.21,30.14,10,10,10,9,2,,0.00,0,,203
2013-2-14,71,52,32,50,37,28,87,74,36,30.20,30.14,30.05,10,8,1,12,1,,0.00,1,,189
2013-2-15,82,59,36,43,31,18,82,46,10,30.18,30.14,30.10,10,10,9,12,2,,0.00,1,,117
2013-2-16,84,62,39,29,21,14,58,28,7,30.14,30.06,29.98,10,10,10,14,4,17,0.00,0,,324
2013-2-17,64,48,33,48,39,25,83,67,40,30.04,29.99,29.95,10,10,9,12,3,,0.00,3,,180
2013-2-18,61,57,53,45,43,40,72,64,52,30.07,30.03,29.98,10,10,8,10,5,,0.00,6,,158
2013-2-19,54,51,48,48,43,38,92,72,57,30.01,29.90,29.74,10,7,2,12,5,23,0.48,8,Rain,211
2013-2-20,57,48,39,46,35,30,87,59,37,30.04,29.85,29.73,10,10,10,12,7,26,0.05,4,Rain,278
2013-2-21,57,47,37,45,38,33,87,74,53,30.12,30.04,29.98,10,10,5,7,2,,0.01,4,Rain,43
2013-2-22,63,48,33,41,36,28,82,64,38,30.21,30.16,30.12,10,10,10,9,2,,0.00,0,,263
2013-2-23,63,48,32,46,38,27,85,70,39,30.17,30.05,29.96,10,10,10,10,2,,0.00,1,,305
2013-2-24,69,53,37,39,23,8,83,40,10,30.11,30.05,30.00,10,10,9,15,4,21,0.00,0,,3
2013-2-25,69,50,30,46,26,11,80,50,11,30.29,30.16,30.09,10,10,10,12,3,17,0.00,0,,262
2013-2-26,66,48,30,42,34,26,82,62,26,30.12,30.04,29.98,10,10,10,9,2,,0.00,0,,203
2013-2-27,75,54,34,39,24,12,79,40,9,30.27,30.19,30.13,10,10,10,12,3,17,0.00,0,,256
2013-2-28,79,56,32,31,23,13,73,38,8,30.31,30.27,30.21,10,10,10,10,2,16,0.00,0,,273